sensor_id;sensor_type;location;lat;lon;timestamp;P1;durP1;ratioP1;P2;durP2;ratioP2
71914;SDS011;60387;49.994;14.660;2022-10-19T00:00:15;34.07;;;10.87;;
71914;SDS011;60387;49.994;14.660;2022-10-19T00:02:48;35.80;;;11.37;;
71914;SDS011;60387;49.994;14.660;2022-10-19T00:05:22;32.90;;;11.53;;
71914;SDS011;60387;49.994;14.660;2022-10-19T00:07:55;35.92;;;11.20;;
71914;SDS011;60387;49.994;14.660;2022-10-19T00:10:28;33.05;;;11.63;;
71914;SDS011;60387;49.994;14.660;2022-10-19T00:13:02;68.03;;;13.27;;
71914;SDS011;60387;49.994;14.660;2022-10-19T00:15:38;37.77;;;12.00;;
71914;SDS011;60387;49.994;14.660;2022-10-19T00:18:12;34.35;;;11.57;;
71914;SDS011;60387;49.994;14.660;2022-10-19T00:20:45;30.02;;;10.80;;
71914;SDS011;60387;49.994;14.660;2022-10-19T00:23:19;34.80;;;11.25;;
71914;SDS011;60387;49.994;14.660;2022-10-19T00:25:55;32.20;;;10.73;;
71914;SDS011;60387;49.994;14.660;2022-10-19T00:28:29;36.47;;;11.88;;
71914;SDS011;60387;49.994;14.660;2022-10-19T00:31:13;29.35;;;10.15;;
71914;SDS011;60387;49.994;14.660;2022-10-19T00:33:48;31.15;;;10.90;;
71914;SDS011;60387;49.994;14.660;2022-10-19T00:38:56;29.00;;;10.82;;
71914;SDS011;60387;49.994;14.660;2022-10-19T00:41:31;27.10;;;11.20;;
71914;SDS011;60387;49.994;14.660;2022-10-19T00:44:55;30.35;;;10.15;;
71914;SDS011;60387;49.994;14.660;2022-10-19T00:47:03;26.80;;;10.25;;
71914;SDS011;60387;49.994;14.660;2022-10-19T00:49:41;26.38;;;10.10;;
71914;SDS011;60387;49.994;14.660;2022-10-19T00:52:18;31.20;;;9.85;;
71914;SDS011;60387;49.994;14.660;2022-10-19T00:54:53;25.10;;;10.00;;
71914;SDS011;60387;49.994;14.660;2022-10-19T00:57:29;29.42;;;10.00;;
71914;SDS011;60387;49.994;14.660;2022-10-19T01:00:05;30.58;;;10.75;;
71914;SDS011;60387;49.994;14.660;2022-10-19T01:02:40;27.50;;;10.48;;
71914;SDS011;60387;49.994;14.660;2022-10-19T01:05:13;27.00;;;9.13;;
71914;SDS011;60387;49.994;14.660;2022-10-19T01:07:48;31.27;;;11.75;;
71914;SDS011;60387;49.994;14.660;2022-10-19T01:10:23;30.23;;;10.37;;
71914;SDS011;60387;49.994;14.660;2022-10-19T01:13:25;25.50;;;9.65;;
71914;SDS011;60387;49.994;14.660;2022-10-19T01:19:25;26.55;;;10.23;;
71914;SDS011;60387;49.994;14.660;2022-10-19T01:22:33;26.70;;;9.60;;
71914;SDS011;60387;49.994;14.660;2022-10-19T01:25:23;30.88;;;9.90;;
71914;SDS011;60387;49.994;14.660;2022-10-19T01:31:38;27.50;;;9.00;;
71914;SDS011;60387;49.994;14.660;2022-10-19T01:37:15;31.57;;;10.10;;
71914;SDS011;60387;49.994;14.660;2022-10-19T01:42:31;29.63;;;10.38;;
71914;SDS011;60387;49.994;14.660;2022-10-19T01:45:19;36.17;;;9.85;;
71914;SDS011;60387;49.994;14.660;2022-10-19T01:47:59;28.67;;;9.88;;
71914;SDS011;60387;49.994;14.660;2022-10-19T01:50:42;30.87;;;9.67;;
71914;SDS011;60387;49.994;14.660;2022-10-19T01:53:21;22.85;;;8.68;;
71914;SDS011;60387;49.994;14.660;2022-10-19T01:55:56;25.73;;;9.45;;
71914;SDS011;60387;49.994;14.660;2022-10-19T01:58:34;31.58;;;10.50;;
71914;SDS011;60387;49.994;14.660;2022-10-19T02:01:10;28.02;;;9.40;;
71914;SDS011;60387;49.994;14.660;2022-10-19T02:03:45;24.60;;;8.60;;
71914;SDS011;60387;49.994;14.660;2022-10-19T02:06:19;28.08;;;9.10;;
71914;SDS011;60387;49.994;14.660;2022-10-19T02:08:53;25.20;;;9.13;;
71914;SDS011;60387;49.994;14.660;2022-10-19T02:11:26;28.97;;;9.80;;
71914;SDS011;60387;49.994;14.660;2022-10-19T02:14:09;25.65;;;10.27;;
71914;SDS011;60387;49.994;14.660;2022-10-19T02:16:48;27.08;;;10.15;;
71914;SDS011;60387;49.994;14.660;2022-10-19T02:19:29;31.20;;;9.83;;
71914;SDS011;60387;49.994;14.660;2022-10-19T02:22:02;26.63;;;9.65;;
71914;SDS011;60387;49.994;14.660;2022-10-19T02:24:36;23.00;;;8.67;;
71914;SDS011;60387;49.994;14.660;2022-10-19T02:27:09;27.40;;;9.03;;
71914;SDS011;60387;49.994;14.660;2022-10-19T02:29:43;23.80;;;8.18;;
71914;SDS011;60387;49.994;14.660;2022-10-19T02:32:17;26.47;;;8.83;;
71914;SDS011;60387;49.994;14.660;2022-10-19T02:34:50;28.87;;;9.83;;
71914;SDS011;60387;49.994;14.660;2022-10-19T02:37:23;25.25;;;9.15;;
71914;SDS011;60387;49.994;14.660;2022-10-19T02:39:57;24.97;;;8.77;;
71914;SDS011;60387;49.994;14.660;2022-10-19T02:42:35;25.93;;;9.83;;
71914;SDS011;60387;49.994;14.660;2022-10-19T02:48:17;28.70;;;9.10;;
71914;SDS011;60387;49.994;14.660;2022-10-19T02:50:54;28.95;;;8.68;;
71914;SDS011;60387;49.994;14.660;2022-10-19T02:53:27;26.00;;;8.87;;
71914;SDS011;60387;49.994;14.660;2022-10-19T02:56:01;24.25;;;8.43;;
71914;SDS011;60387;49.994;14.660;2022-10-19T02:58:34;22.88;;;8.43;;
71914;SDS011;60387;49.994;14.660;2022-10-19T03:01:07;27.02;;;8.93;;
71914;SDS011;60387;49.994;14.660;2022-10-19T03:03:41;24.45;;;8.75;;
71914;SDS011;60387;49.994;14.660;2022-10-19T03:06:14;23.10;;;8.80;;
71914;SDS011;60387;49.994;14.660;2022-10-19T03:08:47;22.00;;;8.80;;
71914;SDS011;60387;49.994;14.660;2022-10-19T03:11:20;23.40;;;8.60;;
71914;SDS011;60387;49.994;14.660;2022-10-19T03:13:54;23.80;;;8.53;;
71914;SDS011;60387;49.994;14.660;2022-10-19T03:16:27;28.17;;;9.77;;
71914;SDS011;60387;49.994;14.660;2022-10-19T03:19:00;25.20;;;8.90;;
71914;SDS011;60387;49.994;14.660;2022-10-19T03:21:33;22.40;;;8.53;;
71914;SDS011;60387;49.994;14.660;2022-10-19T03:24:07;24.17;;;8.50;;
71914;SDS011;60387;49.994;14.660;2022-10-19T03:26:40;24.03;;;7.93;;
71914;SDS011;60387;49.994;14.660;2022-10-19T03:29:14;25.43;;;8.77;;
71914;SDS011;60387;49.994;14.660;2022-10-19T03:31:47;19.93;;;8.33;;
71914;SDS011;60387;49.994;14.660;2022-10-19T03:34:22;23.30;;;7.85;;
71914;SDS011;60387;49.994;14.660;2022-10-19T03:36:55;22.87;;;7.17;;
71914;SDS011;60387;49.994;14.660;2022-10-19T03:39:28;26.27;;;7.47;;
71914;SDS011;60387;49.994;14.660;2022-10-19T03:42:01;21.80;;;7.80;;
71914;SDS011;60387;49.994;14.660;2022-10-19T03:44:35;24.70;;;7.95;;
71914;SDS011;60387;49.994;14.660;2022-10-19T03:47:08;24.63;;;8.17;;
71914;SDS011;60387;49.994;14.660;2022-10-19T03:49:41;32.20;;;6.90;;
71914;SDS011;60387;49.994;14.660;2022-10-19T03:52:16;25.07;;;7.07;;
71914;SDS011;60387;49.994;14.660;2022-10-19T03:54:50;32.43;;;7.23;;
71914;SDS011;60387;49.994;14.660;2022-10-19T03:57:23;20.65;;;6.13;;
71914;SDS011;60387;49.994;14.660;2022-10-19T03:59:57;34.10;;;6.82;;
71914;SDS011;60387;49.994;14.660;2022-10-19T04:02:30;30.35;;;8.07;;
71914;SDS011;60387;49.994;14.660;2022-10-19T04:05:03;25.10;;;6.67;;
71914;SDS011;60387;49.994;14.660;2022-10-19T04:07:37;23.07;;;6.30;;
71914;SDS011;60387;49.994;14.660;2022-10-19T04:10:10;27.00;;;7.00;;
71914;SDS011;60387;49.994;14.660;2022-10-19T04:12:43;24.70;;;7.23;;
71914;SDS011;60387;49.994;14.660;2022-10-19T04:15:17;23.47;;;6.80;;
71914;SDS011;60387;49.994;14.660;2022-10-19T04:17:50;27.47;;;6.90;;
71914;SDS011;60387;49.994;14.660;2022-10-19T04:20:23;24.53;;;7.23;;
71914;SDS011;60387;49.994;14.660;2022-10-19T04:22:56;31.77;;;7.77;;
71914;SDS011;60387;49.994;14.660;2022-10-19T04:25:30;37.77;;;7.73;;
71914;SDS011;60387;49.994;14.660;2022-10-19T04:28:03;23.43;;;7.37;;
71914;SDS011;60387;49.994;14.660;2022-10-19T04:30:36;35.67;;;7.90;;
71914;SDS011;60387;49.994;14.660;2022-10-19T04:33:09;33.53;;;7.77;;
71914;SDS011;60387;49.994;14.660;2022-10-19T04:35:43;31.60;;;7.60;;
71914;SDS011;60387;49.994;14.660;2022-10-19T04:38:16;62.93;;;8.43;;
71914;SDS011;60387;49.994;14.660;2022-10-19T04:40:49;46.87;;;8.40;;
71914;SDS011;60387;49.994;14.660;2022-10-19T04:43:22;41.53;;;7.57;;
71914;SDS011;60387;49.994;14.660;2022-10-19T04:45:56;30.93;;;7.40;;
71914;SDS011;60387;49.994;14.660;2022-10-19T04:48:29;27.33;;;6.97;;
71914;SDS011;60387;49.994;14.660;2022-10-19T04:51:03;27.53;;;7.23;;
71914;SDS011;60387;49.994;14.660;2022-10-19T04:53:37;58.60;;;7.50;;
71914;SDS011;60387;49.994;14.660;2022-10-19T04:56:13;23.63;;;6.88;;
71914;SDS011;60387;49.994;14.660;2022-10-19T04:58:48;42.90;;;7.43;;
71914;SDS011;60387;49.994;14.660;2022-10-19T05:01:22;28.47;;;7.77;;
71914;SDS011;60387;49.994;14.660;2022-10-19T05:03:59;22.63;;;7.57;;
71914;SDS011;60387;49.994;14.660;2022-10-19T05:06:33;28.63;;;8.02;;
71914;SDS011;60387;49.994;14.660;2022-10-19T05:09:06;25.40;;;7.87;;
71914;SDS011;60387;49.994;14.660;2022-10-19T05:11:40;25.37;;;8.30;;
71914;SDS011;60387;49.994;14.660;2022-10-19T05:14:13;26.20;;;8.40;;
71914;SDS011;60387;49.994;14.660;2022-10-19T05:16:46;30.60;;;8.03;;
71914;SDS011;60387;49.994;14.660;2022-10-19T05:19:19;22.80;;;8.10;;
71914;SDS011;60387;49.994;14.660;2022-10-19T05:21:53;24.83;;;8.50;;
71914;SDS011;60387;49.994;14.660;2022-10-19T05:24:26;21.47;;;7.33;;
71914;SDS011;60387;49.994;14.660;2022-10-19T05:26:59;31.63;;;8.47;;
71914;SDS011;60387;49.994;14.660;2022-10-19T05:29:32;34.50;;;8.10;;
71914;SDS011;60387;49.994;14.660;2022-10-19T05:32:06;41.90;;;8.83;;
71914;SDS011;60387;49.994;14.660;2022-10-19T05:34:39;27.60;;;8.17;;
71914;SDS011;60387;49.994;14.660;2022-10-19T05:37:12;23.47;;;7.27;;
71914;SDS011;60387;49.994;14.660;2022-10-19T05:39:47;25.30;;;7.80;;
71914;SDS011;60387;49.994;14.660;2022-10-19T05:42:20;32.10;;;7.90;;
71914;SDS011;60387;49.994;14.660;2022-10-19T05:44:54;24.20;;;7.63;;
71914;SDS011;60387;49.994;14.660;2022-10-19T05:47:27;21.77;;;7.97;;
71914;SDS011;60387;49.994;14.660;2022-10-19T05:50:00;23.50;;;8.20;;
71914;SDS011;60387;49.994;14.660;2022-10-19T05:52:33;26.80;;;8.50;;
71914;SDS011;60387;49.994;14.660;2022-10-19T05:55:07;24.17;;;8.53;;
71914;SDS011;60387;49.994;14.660;2022-10-19T05:57:41;21.85;;;7.97;;
71914;SDS011;60387;49.994;14.660;2022-10-19T06:00:14;21.87;;;8.07;;
71914;SDS011;60387;49.994;14.660;2022-10-19T06:02:48;22.57;;;7.50;;
71914;SDS011;60387;49.994;14.660;2022-10-19T06:05:21;21.13;;;7.63;;
71914;SDS011;60387;49.994;14.660;2022-10-19T06:07:54;20.58;;;7.97;;
71914;SDS011;60387;49.994;14.660;2022-10-19T06:10:27;20.35;;;7.78;;
71914;SDS011;60387;49.994;14.660;2022-10-19T06:13:01;21.17;;;8.18;;
71914;SDS011;60387;49.994;14.660;2022-10-19T06:15:34;19.55;;;7.78;;
71914;SDS011;60387;49.994;14.660;2022-10-19T06:18:09;20.70;;;8.68;;
71914;SDS011;60387;49.994;14.660;2022-10-19T06:20:44;23.33;;;8.20;;
71914;SDS011;60387;49.994;14.660;2022-10-19T06:23:17;19.48;;;7.88;;
71914;SDS011;60387;49.994;14.660;2022-10-19T06:25:51;25.73;;;9.40;;
71914;SDS011;60387;49.994;14.660;2022-10-19T06:28:24;21.07;;;7.60;;
71914;SDS011;60387;49.994;14.660;2022-10-19T06:30:57;23.00;;;9.20;;
71914;SDS011;60387;49.994;14.660;2022-10-19T06:33:31;23.23;;;8.85;;
71914;SDS011;60387;49.994;14.660;2022-10-19T06:36:08;22.83;;;8.50;;
71914;SDS011;60387;49.994;14.660;2022-10-19T06:38:52;20.20;;;7.75;;
71914;SDS011;60387;49.994;14.660;2022-10-19T06:41:26;18.93;;;7.20;;
71914;SDS011;60387;49.994;14.660;2022-10-19T06:44:00;18.25;;;6.85;;
71914;SDS011;60387;49.994;14.660;2022-10-19T06:46:33;18.93;;;6.50;;
71914;SDS011;60387;49.994;14.660;2022-10-19T06:49:06;18.37;;;7.00;;
71914;SDS011;60387;49.994;14.660;2022-10-19T06:51:39;16.33;;;6.67;;
71914;SDS011;60387;49.994;14.660;2022-10-19T06:54:13;19.53;;;7.33;;
71914;SDS011;60387;49.994;14.660;2022-10-19T06:56:46;18.87;;;6.70;;
71914;SDS011;60387;49.994;14.660;2022-10-19T06:59:19;18.77;;;6.90;;
71914;SDS011;60387;49.994;14.660;2022-10-19T07:01:52;15.67;;;6.27;;
71914;SDS011;60387;49.994;14.660;2022-10-19T07:04:26;15.23;;;5.63;;
71914;SDS011;60387;49.994;14.660;2022-10-19T07:06:59;15.80;;;5.40;;
71914;SDS011;60387;49.994;14.660;2022-10-19T07:09:32;15.07;;;5.43;;
71914;SDS011;60387;49.994;14.660;2022-10-19T07:12:06;14.80;;;5.65;;
71914;SDS011;60387;49.994;14.660;2022-10-19T07:14:39;15.55;;;5.57;;
71914;SDS011;60387;49.994;14.660;2022-10-19T07:17:12;14.77;;;5.72;;
71914;SDS011;60387;49.994;14.660;2022-10-19T07:19:46;13.50;;;5.03;;
71914;SDS011;60387;49.994;14.660;2022-10-19T07:22:19;18.67;;;6.73;;
71914;SDS011;60387;49.994;14.660;2022-10-19T07:24:52;17.37;;;5.33;;
71914;SDS011;60387;49.994;14.660;2022-10-19T07:27:26;15.87;;;5.50;;
71914;SDS011;60387;49.994;14.660;2022-10-19T07:30:00;14.18;;;5.22;;
71914;SDS011;60387;49.994;14.660;2022-10-19T07:32:33;13.32;;;5.00;;
71914;SDS011;60387;49.994;14.660;2022-10-19T07:35:06;12.60;;;4.47;;
71914;SDS011;60387;49.994;14.660;2022-10-19T07:37:40;13.10;;;4.33;;
71914;SDS011;60387;49.994;14.660;2022-10-19T07:40:13;13.20;;;4.70;;
71914;SDS011;60387;49.994;14.660;2022-10-19T07:42:46;13.80;;;5.13;;
71914;SDS011;60387;49.994;14.660;2022-10-19T07:45:19;12.73;;;4.57;;
71914;SDS011;60387;49.994;14.660;2022-10-19T07:47:53;16.33;;;5.10;;
71914;SDS011;60387;49.994;14.660;2022-10-19T07:50:26;13.30;;;5.07;;
71914;SDS011;60387;49.994;14.660;2022-10-19T07:52:59;20.70;;;4.00;;
71914;SDS011;60387;49.994;14.660;2022-10-19T07:55:33;13.40;;;4.47;;
71914;SDS011;60387;49.994;14.660;2022-10-19T07:58:06;9.70;;;3.83;;
71914;SDS011;60387;49.994;14.660;2022-10-19T08:00:39;14.40;;;5.17;;
71914;SDS011;60387;49.994;14.660;2022-10-19T08:03:13;13.40;;;4.27;;
71914;SDS011;60387;49.994;14.660;2022-10-19T08:05:46;12.30;;;4.33;;
71914;SDS011;60387;49.994;14.660;2022-10-19T08:08:19;10.23;;;4.20;;
71914;SDS011;60387;49.994;14.660;2022-10-19T08:10:52;12.23;;;4.17;;
71914;SDS011;60387;49.994;14.660;2022-10-19T08:13:26;14.02;;;4.10;;
71914;SDS011;60387;49.994;14.660;2022-10-19T08:15:59;9.63;;;3.90;;
71914;SDS011;60387;49.994;14.660;2022-10-19T08:18:33;11.50;;;4.37;;
71914;SDS011;60387;49.994;14.660;2022-10-19T08:21:06;10.73;;;4.37;;
71914;SDS011;60387;49.994;14.660;2022-10-19T08:23:39;13.37;;;4.30;;
71914;SDS011;60387;49.994;14.660;2022-10-19T08:26:13;10.57;;;4.73;;
71914;SDS011;60387;49.994;14.660;2022-10-19T08:29:01;11.90;;;3.15;;
71914;SDS011;60387;49.994;14.660;2022-10-19T08:31:40;9.70;;;3.75;;
71914;SDS011;60387;49.994;14.660;2022-10-19T08:34:14;8.80;;;3.10;;
71914;SDS011;60387;49.994;14.660;2022-10-19T08:36:48;13.32;;;3.13;;
71914;SDS011;60387;49.994;14.660;2022-10-19T08:39:21;8.83;;;3.33;;
71914;SDS011;60387;49.994;14.660;2022-10-19T08:44:43;9.57;;;2.80;;
71914;SDS011;60387;49.994;14.660;2022-10-19T08:47:42;13.98;;;3.63;;
71914;SDS011;60387;49.994;14.660;2022-10-19T08:50:20;9.77;;;3.33;;
71914;SDS011;60387;49.994;14.660;2022-10-19T08:53:03;9.30;;;3.17;;
71914;SDS011;60387;49.994;14.660;2022-10-19T08:55:50;8.57;;;2.80;;
71914;SDS011;60387;49.994;14.660;2022-10-19T09:04:34;10.20;;;3.15;;
71914;SDS011;60387;49.994;14.660;2022-10-19T09:07:26;9.03;;;3.17;;
71914;SDS011;60387;49.994;14.660;2022-10-19T09:10:04;9.40;;;2.88;;
71914;SDS011;60387;49.994;14.660;2022-10-19T09:18:09;11.70;;;3.57;;
71914;SDS011;60387;49.994;14.660;2022-10-19T09:20:43;15.02;;;3.13;;
71914;SDS011;60387;49.994;14.660;2022-10-19T09:23:25;13.03;;;3.00;;
71914;SDS011;60387;49.994;14.660;2022-10-19T09:26:02;9.52;;;2.67;;
71914;SDS011;60387;49.994;14.660;2022-10-19T09:31:45;7.15;;;2.35;;
71914;SDS011;60387;49.994;14.660;2022-10-19T09:37:23;7.17;;;2.13;;
71914;SDS011;60387;49.994;14.660;2022-10-19T09:39:57;5.55;;;1.77;;
71914;SDS011;60387;49.994;14.660;2022-10-19T09:42:31;8.00;;;2.00;;
71914;SDS011;60387;49.994;14.660;2022-10-19T09:45:11;6.63;;;1.48;;
71914;SDS011;60387;49.994;14.660;2022-10-19T09:47:49;8.57;;;1.92;;
71914;SDS011;60387;49.994;14.660;2022-10-19T09:50:25;7.78;;;2.67;;
71914;SDS011;60387;49.994;14.660;2022-10-19T09:53:02;8.10;;;2.00;;
71914;SDS011;60387;49.994;14.660;2022-10-19T09:55:37;4.60;;;1.30;;
71914;SDS011;60387;49.994;14.660;2022-10-19T10:00:50;6.03;;;1.48;;
71914;SDS011;60387;49.994;14.660;2022-10-19T10:03:26;6.18;;;1.77;;
71914;SDS011;60387;49.994;14.660;2022-10-19T10:06:03;6.38;;;1.33;;
71914;SDS011;60387;49.994;14.660;2022-10-19T10:11:36;6.40;;;1.38;;
71914;SDS011;60387;49.994;14.660;2022-10-19T10:14:31;5.82;;;1.30;;
71914;SDS011;60387;49.994;14.660;2022-10-19T10:17:11;5.65;;;1.73;;
71914;SDS011;60387;49.994;14.660;2022-10-19T10:20:01;9.50;;;1.17;;
71914;SDS011;60387;49.994;14.660;2022-10-19T10:22:38;6.53;;;0.80;;
71914;SDS011;60387;49.994;14.660;2022-10-19T10:25:31;6.57;;;1.30;;
71914;SDS011;60387;49.994;14.660;2022-10-19T10:28:17;3.42;;;0.93;;
71914;SDS011;60387;49.994;14.660;2022-10-19T10:30:53;5.18;;;1.13;;
71914;SDS011;60387;49.994;14.660;2022-10-19T10:33:33;5.22;;;1.40;;
71914;SDS011;60387;49.994;14.660;2022-10-19T10:36:09;6.10;;;1.30;;
71914;SDS011;60387;49.994;14.660;2022-10-19T10:38:48;4.63;;;1.20;;
71914;SDS011;60387;49.994;14.660;2022-10-19T10:41:24;6.20;;;1.63;;
71914;SDS011;60387;49.994;14.660;2022-10-19T10:44:01;5.65;;;1.40;;
71914;SDS011;60387;49.994;14.660;2022-10-19T10:46:56;6.78;;;1.70;;
71914;SDS011;60387;49.994;14.660;2022-10-19T10:49:32;4.03;;;1.80;;
71914;SDS011;60387;49.994;14.660;2022-10-19T10:52:14;5.13;;;1.33;;
71914;SDS011;60387;49.994;14.660;2022-10-19T10:54:57;5.28;;;1.30;;
71914;SDS011;60387;49.994;14.660;2022-10-19T10:57:40;6.22;;;1.50;;
71914;SDS011;60387;49.994;14.660;2022-10-19T11:00:19;6.27;;;1.30;;
71914;SDS011;60387;49.994;14.660;2022-10-19T11:02:59;5.30;;;1.30;;
71914;SDS011;60387;49.994;14.660;2022-10-19T11:05:44;2.92;;;0.95;;
71914;SDS011;60387;49.994;14.660;2022-10-19T11:13:51;3.80;;;0.70;;
71914;SDS011;60387;49.994;14.660;2022-10-19T11:16:32;2.65;;;0.60;;
71914;SDS011;60387;49.994;14.660;2022-10-19T11:19:21;3.38;;;0.70;;
71914;SDS011;60387;49.994;14.660;2022-10-19T11:27:37;5.20;;;0.70;;
71914;SDS011;60387;49.994;14.660;2022-10-19T11:30:19;5.10;;;0.68;;
71914;SDS011;60387;49.994;14.660;2022-10-19T11:33:03;4.57;;;0.75;;
71914;SDS011;60387;49.994;14.660;2022-10-19T11:35:44;6.82;;;0.88;;
71914;SDS011;60387;49.994;14.660;2022-10-19T11:38:34;5.40;;;1.33;;
71914;SDS011;60387;49.994;14.660;2022-10-19T12:01:42;3.45;;;0.80;;
71914;SDS011;60387;49.994;14.660;2022-10-19T12:04:41;4.78;;;0.80;;
71914;SDS011;60387;49.994;14.660;2022-10-19T12:13:13;3.60;;;0.90;;
71914;SDS011;60387;49.994;14.660;2022-10-19T12:15:51;4.03;;;0.98;;
71914;SDS011;60387;49.994;14.660;2022-10-19T12:18:33;5.55;;;1.98;;
71914;SDS011;60387;49.994;14.660;2022-10-19T12:23:58;4.70;;;1.20;;
71914;SDS011;60387;49.994;14.660;2022-10-19T12:26:34;6.07;;;1.20;;
71914;SDS011;60387;49.994;14.660;2022-10-19T12:29:27;3.08;;;1.00;;
71914;SDS011;60387;49.994;14.660;2022-10-19T12:32:03;4.63;;;1.08;;
71914;SDS011;60387;49.994;14.660;2022-10-19T12:37:43;4.60;;;0.70;;
71914;SDS011;60387;49.994;14.660;2022-10-19T12:40:44;2.75;;;0.60;;
71914;SDS011;60387;49.994;14.660;2022-10-19T12:43:26;3.08;;;0.70;;
71914;SDS011;60387;49.994;14.660;2022-10-19T12:52:00;6.75;;;0.82;;
71914;SDS011;60387;49.994;14.660;2022-10-19T12:54:35;2.03;;;0.70;;
71914;SDS011;60387;49.994;14.660;2022-10-19T12:57:26;3.47;;;0.90;;
71914;SDS011;60387;49.994;14.660;2022-10-19T13:00:05;3.85;;;0.90;;
71914;SDS011;60387;49.994;14.660;2022-10-19T13:05:59;3.63;;;0.80;;
71914;SDS011;60387;49.994;14.660;2022-10-19T13:09:01;4.05;;;0.60;;
71914;SDS011;60387;49.994;14.660;2022-10-19T13:11:36;3.58;;;0.65;;
71914;SDS011;60387;49.994;14.660;2022-10-19T13:22:48;4.65;;;0.68;;
71914;SDS011;60387;49.994;14.660;2022-10-19T13:25:41;3.72;;;1.00;;
71914;SDS011;60387;49.994;14.660;2022-10-19T13:31:00;2.10;;;0.80;;
71914;SDS011;60387;49.994;14.660;2022-10-19T13:33:43;4.45;;;0.90;;
71914;SDS011;60387;49.994;14.660;2022-10-19T13:36:18;4.43;;;0.98;;
71914;SDS011;60387;49.994;14.660;2022-10-19T14:07:21;1.30;;;0.40;;
71914;SDS011;60387;49.994;14.660;2022-10-19T14:12:40;3.42;;;0.98;;
71914;SDS011;60387;49.994;14.660;2022-10-19T14:17:50;2.77;;;0.60;;
71914;SDS011;60387;49.994;14.660;2022-10-19T14:20:33;4.80;;;0.60;;
71914;SDS011;60387;49.994;14.660;2022-10-19T14:23:18;4.80;;;0.57;;
71914;SDS011;60387;49.994;14.660;2022-10-19T14:28:32;3.45;;;0.70;;
71914;SDS011;60387;49.994;14.660;2022-10-19T14:31:07;2.80;;;0.60;;
71914;SDS011;60387;49.994;14.660;2022-10-19T14:33:44;2.88;;;0.70;;
71914;SDS011;60387;49.994;14.660;2022-10-19T14:36:20;4.05;;;0.70;;
71914;SDS011;60387;49.994;14.660;2022-10-19T14:38:56;5.93;;;0.90;;
71914;SDS011;60387;49.994;14.660;2022-10-19T14:41:31;2.67;;;0.60;;
71914;SDS011;60387;49.994;14.660;2022-10-19T14:47:17;4.15;;;0.90;;
71914;SDS011;60387;49.994;14.660;2022-10-19T14:49:53;2.33;;;0.77;;
71914;SDS011;60387;49.994;14.660;2022-10-19T14:52:29;5.10;;;0.90;;
71914;SDS011;60387;49.994;14.660;2022-10-19T14:55:13;8.32;;;1.67;;
71914;SDS011;60387;49.994;14.660;2022-10-19T14:57:49;7.87;;;1.57;;
71914;SDS011;60387;49.994;14.660;2022-10-19T15:00:26;6.88;;;2.03;;
71914;SDS011;60387;49.994;14.660;2022-10-19T15:03:05;5.47;;;1.40;;
71914;SDS011;60387;49.994;14.660;2022-10-19T15:05:46;5.93;;;1.45;;
71914;SDS011;60387;49.994;14.660;2022-10-19T15:08:34;2.95;;;0.70;;
71914;SDS011;60387;49.994;14.660;2022-10-19T15:14:21;3.53;;;0.90;;
71914;SDS011;60387;49.994;14.660;2022-10-19T15:17:00;3.05;;;0.70;;
71914;SDS011;60387;49.994;14.660;2022-10-19T15:24:54;3.33;;;0.70;;
71914;SDS011;60387;49.994;14.660;2022-10-19T15:30:21;3.97;;;0.90;;
71914;SDS011;60387;49.994;14.660;2022-10-19T15:35:37;3.03;;;0.67;;
71914;SDS011;60387;49.994;14.660;2022-10-19T15:40:59;4.00;;;0.75;;
71914;SDS011;60387;49.994;14.660;2022-10-19T15:43:34;3.70;;;0.70;;
71914;SDS011;60387;49.994;14.660;2022-10-19T15:48:49;4.43;;;0.90;;
71914;SDS011;60387;49.994;14.660;2022-10-19T15:53:57;4.63;;;1.10;;
71914;SDS011;60387;49.994;14.660;2022-10-19T15:56:33;6.35;;;1.20;;
71914;SDS011;60387;49.994;14.660;2022-10-19T15:59:14;7.35;;;1.60;;
71914;SDS011;60387;49.994;14.660;2022-10-19T16:01:51;8.87;;;1.73;;
71914;SDS011;60387;49.994;14.660;2022-10-19T16:04:25;10.20;;;2.70;;
71914;SDS011;60387;49.994;14.660;2022-10-19T16:06:58;4.63;;;0.97;;
71914;SDS011;60387;49.994;14.660;2022-10-19T16:09:33;3.05;;;0.77;;
71914;SDS011;60387;49.994;14.660;2022-10-19T16:12:08;4.25;;;0.90;;
71914;SDS011;60387;49.994;14.660;2022-10-19T16:14:42;85.13;;;19.67;;
71914;SDS011;60387;49.994;14.660;2022-10-19T16:17:16;28.88;;;6.88;;
71914;SDS011;60387;49.994;14.660;2022-10-19T16:19:49;35.05;;;8.68;;
71914;SDS011;60387;49.994;14.660;2022-10-19T16:22:23;6.77;;;1.43;;
71914;SDS011;60387;49.994;14.660;2022-10-19T16:24:56;7.30;;;1.40;;
71914;SDS011;60387;49.994;14.660;2022-10-19T16:27:30;4.90;;;0.70;;
71914;SDS011;60387;49.994;14.660;2022-10-19T16:30:03;3.83;;;0.60;;
71914;SDS011;60387;49.994;14.660;2022-10-19T16:32:37;2.50;;;0.50;;
71914;SDS011;60387;49.994;14.660;2022-10-19T16:35:10;12.67;;;2.60;;
71914;SDS011;60387;49.994;14.660;2022-10-19T16:37:44;7.20;;;1.50;;
71914;SDS011;60387;49.994;14.660;2022-10-19T16:40:17;12.18;;;2.95;;
71914;SDS011;60387;49.994;14.660;2022-10-19T16:42:50;7.83;;;1.87;;
71914;SDS011;60387;49.994;14.660;2022-10-19T16:45:24;3.80;;;0.90;;
71914;SDS011;60387;49.994;14.660;2022-10-19T16:47:57;2.67;;;0.70;;
71914;SDS011;60387;49.994;14.660;2022-10-19T16:50:30;4.53;;;0.60;;
71914;SDS011;60387;49.994;14.660;2022-10-19T16:53:07;7.37;;;1.30;;
71914;SDS011;60387;49.994;14.660;2022-10-19T16:55:42;23.80;;;5.32;;
71914;SDS011;60387;49.994;14.660;2022-10-19T16:58:15;3.70;;;0.80;;
71914;SDS011;60387;49.994;14.660;2022-10-19T17:00:48;7.27;;;1.30;;
71914;SDS011;60387;49.994;14.660;2022-10-19T17:03:22;3.87;;;0.70;;
71914;SDS011;60387;49.994;14.660;2022-10-19T17:05:55;3.67;;;0.80;;
71914;SDS011;60387;49.994;14.660;2022-10-19T17:08:29;5.03;;;1.10;;
71914;SDS011;60387;49.994;14.660;2022-10-19T17:13:48;9.93;;;2.20;;
71914;SDS011;60387;49.994;14.660;2022-10-19T17:16:27;7.05;;;1.90;;
71914;SDS011;60387;49.994;14.660;2022-10-19T17:19:02;6.50;;;1.42;;
71914;SDS011;60387;49.994;14.660;2022-10-19T17:21:37;5.57;;;1.10;;
71914;SDS011;60387;49.994;14.660;2022-10-19T17:24:12;3.50;;;0.80;;
71914;SDS011;60387;49.994;14.660;2022-10-19T17:26:47;4.43;;;1.00;;
71914;SDS011;60387;49.994;14.660;2022-10-19T17:29:22;3.63;;;0.65;;
71914;SDS011;60387;49.994;14.660;2022-10-19T17:31:56;7.60;;;1.20;;
71914;SDS011;60387;49.994;14.660;2022-10-19T17:34:29;6.63;;;1.75;;
71914;SDS011;60387;49.994;14.660;2022-10-19T17:37:02;6.20;;;1.40;;
71914;SDS011;60387;49.994;14.660;2022-10-19T17:39:36;5.47;;;1.53;;
71914;SDS011;60387;49.994;14.660;2022-10-19T17:42:09;5.93;;;1.40;;
71914;SDS011;60387;49.994;14.660;2022-10-19T17:44:45;8.15;;;1.55;;
71914;SDS011;60387;49.994;14.660;2022-10-19T17:47:18;5.83;;;1.43;;
71914;SDS011;60387;49.994;14.660;2022-10-19T17:49:51;6.90;;;1.73;;
71914;SDS011;60387;49.994;14.660;2022-10-19T17:52:25;36.43;;;14.60;;
71914;SDS011;60387;49.994;14.660;2022-10-19T17:54:58;8.03;;;2.43;;
71914;SDS011;60387;49.994;14.660;2022-10-19T17:57:33;6.77;;;1.80;;
71914;SDS011;60387;49.994;14.660;2022-10-19T18:00:09;20.48;;;12.82;;
71914;SDS011;60387;49.994;14.660;2022-10-19T18:02:43;9.07;;;3.50;;
71914;SDS011;60387;49.994;14.660;2022-10-19T18:05:17;8.60;;;2.40;;
71914;SDS011;60387;49.994;14.660;2022-10-19T18:07:50;13.67;;;4.03;;
71914;SDS011;60387;49.994;14.660;2022-10-19T18:10:23;20.97;;;8.33;;